createdAt,value
2022-11-09T00:01:30.116Z,41.75
2022-11-09T00:04:00.252Z,36.85
2022-11-09T00:06:29.528Z,34.65
2022-11-09T00:09:01.323Z,31.85
2022-11-09T00:11:35.053Z,34.00
2022-11-09T00:14:05.318Z,37.15
2022-11-09T00:16:33.732Z,34.33
2022-11-09T00:19:02.011Z,32.33
2022-11-09T00:21:30.143Z,32.88
2022-11-09T00:23:58.483Z,34.40
2022-11-09T00:26:27.385Z,39.00
2022-11-09T00:28:55.535Z,32.13
2022-11-09T00:31:26.003Z,35.95
2022-11-09T00:33:55.535Z,32.88
2022-11-09T00:36:25.602Z,41.65
2022-11-09T00:38:55.441Z,33.88
2022-11-09T00:41:24.150Z,38.53
2022-11-09T00:43:52.818Z,38.67
2022-11-09T00:46:22.111Z,34.33
2022-11-09T00:48:55.744Z,38.72
2022-11-09T00:51:24.066Z,34.17
2022-11-09T00:53:55.164Z,41.35
2022-11-09T00:56:24.565Z,41.30
2022-11-09T00:58:55.782Z,37.17
2022-11-09T01:01:24.442Z,34.30
2022-11-09T01:03:54.068Z,41.15
2022-11-09T01:06:25.281Z,41.08
2022-11-09T01:08:54.011Z,40.67
2022-11-09T01:11:23.509Z,39.50
2022-11-09T01:13:53.992Z,41.05
2022-11-09T01:16:24.413Z,34.35
2022-11-09T01:18:55.509Z,38.75
2022-11-09T01:21:26.561Z,35.60
2022-11-09T01:23:54.817Z,44.50
2022-11-09T01:26:23.364Z,43.63
2022-11-09T01:28:52.652Z,38.97
2022-11-09T01:31:22.643Z,39.78
2022-11-09T01:33:51.257Z,44.92
2022-11-09T01:36:22.976Z,45.75
2022-11-09T01:38:51.736Z,43.90
2022-11-09T01:41:21.815Z,34.28
2022-11-09T01:44:11.668Z,49.38
2022-11-09T01:46:48.273Z,39.45
2022-11-09T01:49:23.851Z,42.97
2022-11-09T01:51:57.868Z,39.00
2022-11-09T01:54:30.135Z,45.33
2022-11-09T01:57:02.243Z,42.20
2022-11-09T01:59:35.089Z,37.08
2022-11-09T02:02:03.861Z,45.08
2022-11-09T02:04:36.205Z,36.38
2022-11-09T02:07:07.084Z,38.13
2022-11-09T02:09:41.100Z,40.97
2022-11-09T02:12:10.942Z,38.53
2022-11-09T02:14:40.102Z,37.30
2022-11-09T02:17:09.013Z,43.15
2022-11-09T02:19:36.999Z,39.17
2022-11-09T02:22:08.561Z,37.30
2022-11-09T02:24:36.766Z,42.00
2022-11-09T02:27:07.127Z,41.67
2022-11-09T02:29:38.305Z,43.03
2022-11-09T02:32:13.597Z,41.58
2022-11-09T02:34:41.758Z,39.00
2022-11-09T02:37:11.318Z,43.13
2022-11-09T02:39:39.965Z,37.50
2022-11-09T02:42:15.757Z,38.45
2022-11-09T02:44:52.243Z,39.88
2022-11-09T02:47:20.260Z,43.40
2022-11-09T02:49:50.125Z,40.40
2022-11-09T02:52:21.628Z,41.55
2022-11-09T02:54:49.641Z,40.42
2022-11-09T02:57:18.447Z,50.80
2022-11-09T02:59:46.783Z,44.95
2022-11-09T03:02:15.190Z,43.63
2022-11-09T03:04:43.247Z,39.03
2022-11-09T03:07:11.792Z,40.65
2022-11-09T03:09:42.492Z,43.63
2022-11-09T03:12:29.299Z,37.03
2022-11-09T03:15:03.396Z,49.70
2022-11-09T03:17:33.580Z,45.15
2022-11-09T03:20:02.045Z,46.67
2022-11-09T03:22:30.278Z,47.17
2022-11-09T03:25:00.134Z,41.00
2022-11-09T03:27:28.729Z,48.67
2022-11-09T03:29:56.789Z,48.58
2022-11-09T03:32:25.606Z,61.63
2022-11-09T03:34:54.067Z,44.40
2022-11-09T03:37:22.175Z,53.03
2022-11-09T03:39:50.433Z,62.55
2022-11-09T03:42:19.837Z,52.80
2022-11-09T03:44:47.931Z,51.75
2022-11-09T03:47:16.098Z,55.75
2022-11-09T03:49:44.051Z,48.05
2022-11-09T03:52:12.424Z,53.08
2022-11-09T03:54:42.116Z,51.03
2022-11-09T03:57:10.241Z,56.97
2022-11-09T03:59:39.637Z,44.83
2022-11-09T04:02:07.795Z,49.75
2022-11-09T04:04:35.950Z,51.72
2022-11-09T04:07:03.960Z,48.00
2022-11-09T04:09:32.618Z,46.97
2022-11-09T04:12:00.526Z,46.60
2022-11-09T04:14:28.386Z,51.65
2022-11-09T04:16:57.846Z,49.80
2022-11-09T04:19:25.771Z,51.97
2022-11-09T04:21:53.793Z,51.63
2022-11-09T04:24:21.736Z,44.83
2022-11-09T04:26:50.213Z,54.40
2022-11-09T04:29:18.476Z,54.75
2022-11-09T04:31:46.516Z,47.50
2022-11-09T04:34:16.046Z,56.40
2022-11-09T04:36:45.293Z,55.17
2022-11-09T04:39:13.348Z,53.45
2022-11-09T04:41:41.574Z,54.33
2022-11-09T04:44:09.864Z,50.38
2022-11-09T04:46:37.960Z,48.47
2022-11-09T04:49:05.966Z,51.58
2022-11-09T04:51:35.397Z,50.60
2022-11-09T04:54:03.442Z,48.15
2022-11-09T04:56:31.449Z,47.10
2022-11-09T04:59:49.535Z,49.65
2022-11-09T05:02:17.950Z,49.90
2022-11-09T05:04:46.239Z,48.55
2022-11-09T05:07:17.869Z,41.85
2022-11-09T05:09:45.916Z,50.22
2022-11-09T05:12:14.311Z,44.05
2022-11-09T05:14:42.348Z,40.00
2022-11-09T05:17:10.474Z,49.50
2022-11-09T05:19:38.635Z,43.85
2022-11-09T05:22:22.119Z,44.53
2022-11-09T05:24:56.497Z,44.50
2022-11-09T05:27:24.580Z,44.03
2022-11-09T05:29:52.537Z,42.40
2022-11-09T05:32:20.542Z,46.42
2022-11-09T05:34:48.704Z,45.78
2022-11-09T05:37:17.607Z,45.45
2022-11-09T05:39:45.577Z,48.47
2022-11-09T05:42:15.304Z,48.25
2022-11-09T05:44:43.294Z,44.00
2022-11-09T05:47:11.356Z,49.15
2022-11-09T05:49:39.504Z,43.20
2022-11-09T05:52:07.727Z,51.95
2022-11-09T05:54:35.620Z,45.03
2022-11-09T05:57:03.684Z,50.13
2022-11-09T05:59:33.044Z,49.90
2022-11-09T06:02:01.222Z,53.85
2022-11-09T06:04:29.524Z,54.10
2022-11-09T06:06:57.523Z,52.15
2022-11-09T06:09:25.685Z,48.53
2022-11-09T06:11:53.672Z,55.08
2022-11-09T06:14:21.665Z,52.85
2022-11-09T06:16:51.310Z,59.40
2022-11-09T06:19:19.286Z,43.45
2022-11-09T06:21:47.435Z,42.47
2022-11-09T06:24:15.723Z,43.92
2022-11-09T06:26:44.107Z,44.28
2022-11-09T06:29:12.068Z,53.97
2022-11-09T06:31:40.106Z,45.67
2022-11-09T06:34:10.256Z,45.35
2022-11-09T06:36:38.381Z,42.00
2022-11-09T06:39:08.857Z,42.90
2022-11-09T06:41:37.155Z,47.25
2022-11-09T06:44:06.443Z,56.45
2022-11-09T06:46:35.027Z,56.92
2022-11-09T06:49:03.040Z,51.53
2022-11-09T06:51:32.485Z,68.68
2022-11-09T06:54:00.793Z,56.28
2022-11-09T06:56:28.897Z,58.42
2022-11-09T06:58:56.895Z,51.88
2022-11-09T07:01:29.780Z,49.33
2022-11-09T07:03:58.202Z,48.65
2022-11-09T07:06:26.368Z,49.55
2022-11-09T07:08:58.190Z,51.17
2022-11-09T07:11:26.166Z,45.20
2022-11-09T07:13:57.441Z,56.97
2022-11-09T07:16:26.073Z,48.75
2022-11-09T07:18:54.601Z,46.28
2022-11-09T07:21:22.709Z,42.15
2022-11-09T07:23:51.131Z,50.22
2022-11-09T07:26:20.577Z,48.08
2022-11-09T07:28:48.619Z,42.88
2022-11-09T07:31:16.880Z,49.95
2022-11-09T07:33:44.912Z,39.75
2022-11-09T07:36:18.241Z,40.70
2022-11-09T07:38:48.957Z,48.15
2022-11-09T07:41:17.120Z,46.85
2022-11-09T07:43:46.724Z,47.72
2022-11-09T07:46:14.724Z,46.40
2022-11-09T07:48:42.760Z,42.50
2022-11-09T07:51:10.822Z,39.75
2022-11-09T07:53:39.546Z,54.03
2022-11-09T07:56:07.927Z,52.30
2022-11-09T07:58:37.013Z,43.17
2022-11-09T08:01:10.149Z,51.67
2022-11-09T08:03:38.529Z,49.33
2022-11-09T08:06:07.030Z,57.20
2022-11-09T08:08:35.343Z,49.28
2022-11-09T08:11:03.422Z,54.95
2022-11-09T08:13:31.439Z,42.92
2022-11-09T08:16:02.101Z,47.45
2022-11-09T08:18:31.612Z,40.85
2022-11-09T08:21:02.626Z,41.45
2022-11-09T08:23:30.980Z,44.13
2022-11-09T08:26:02.843Z,42.83
2022-11-09T08:28:31.131Z,46.22
2022-11-09T08:31:01.130Z,46.15
2022-11-09T08:33:34.913Z,58.70
2022-11-09T08:36:03.058Z,43.35
2022-11-09T08:38:33.247Z,48.80
2022-11-09T08:41:01.377Z,54.00
2022-11-09T08:43:29.493Z,46.67
2022-11-09T08:45:57.712Z,47.25
2022-11-09T08:48:26.095Z,46.20
2022-11-09T08:50:56.922Z,52.63
2022-11-09T08:53:26.103Z,49.33
2022-11-09T08:55:54.306Z,50.83
2022-11-09T08:58:23.587Z,48.80
2022-11-09T09:00:51.787Z,52.80
2022-11-09T09:03:19.915Z,47.42
2022-11-09T09:05:48.104Z,36.40
2022-11-09T09:08:21.964Z,43.90
2022-11-09T09:10:50.430Z,38.60
2022-11-09T09:13:19.444Z,38.95
2022-11-09T09:15:47.581Z,43.33
2022-11-09T09:18:16.052Z,42.38
2022-11-09T09:20:44.140Z,40.55
2022-11-09T09:23:14.243Z,40.45
2022-11-09T09:25:43.690Z,40.72
2022-11-09T09:28:11.841Z,39.65
2022-11-09T09:30:39.856Z,32.13
2022-11-09T09:33:07.923Z,36.80
2022-11-09T09:35:36.088Z,36.05
2022-11-09T09:38:04.324Z,37.88
2022-11-09T09:40:53.723Z,41.30
2022-11-09T09:43:32.199Z,44.63
2022-11-09T09:46:03.195Z,37.70
2022-11-09T09:48:37.906Z,33.83
2022-11-09T09:51:13.056Z,40.67
2022-11-09T09:53:47.605Z,37.58
2022-11-09T09:56:22.907Z,41.05
2022-11-09T09:59:11.078Z,35.08
2022-11-09T10:01:40.691Z,35.47
2022-11-09T10:04:18.189Z,39.85
2022-11-09T10:07:01.068Z,34.58
2022-11-09T10:09:39.718Z,38.05
2022-11-09T10:12:19.368Z,35.22
2022-11-09T10:15:04.583Z,42.65
2022-11-09T10:17:41.656Z,37.95
2022-11-09T10:20:28.571Z,38.78
2022-11-09T10:23:08.176Z,32.33
2022-11-09T10:28:47.589Z,34.72
2022-11-09T10:31:21.273Z,34.67
2022-11-09T10:33:54.956Z,30.60
2022-11-09T10:36:28.622Z,41.33
2022-11-09T10:39:01.810Z,40.33
2022-11-09T10:41:48.686Z,35.35
2022-11-09T10:44:37.056Z,32.28
2022-11-09T10:47:24.193Z,35.88
2022-11-09T10:50:22.722Z,38.95
2022-11-09T10:53:15.689Z,38.58
2022-11-09T10:56:20.313Z,38.35
2022-11-09T10:59:36.490Z,39.40
2022-11-09T11:02:50.013Z,40.85
2022-11-09T11:05:37.370Z,40.78
2022-11-09T11:08:27.765Z,38.17
2022-11-09T11:11:34.956Z,39.83
2022-11-09T11:14:30.408Z,43.33
2022-11-09T11:17:27.956Z,41.67
2022-11-09T11:20:32.539Z,39.47
2022-11-09T11:23:21.593Z,37.22
2022-11-09T11:26:31.498Z,38.70
2022-11-09T11:29:33.728Z,43.15
2022-11-09T11:32:21.600Z,40.75
2022-11-09T11:35:14.912Z,35.65
2022-11-09T11:38:17.380Z,42.28
2022-11-09T11:41:21.585Z,35.33
2022-11-09T11:44:18.675Z,37.17
2022-11-09T11:47:11.254Z,48.13
2022-11-09T11:50:26.416Z,38.25
2022-11-09T11:53:28.331Z,43.17
2022-11-09T11:56:23.425Z,41.42
2022-11-09T11:59:48.064Z,43.50
2022-11-09T12:03:10.874Z,37.47
2022-11-09T12:06:12.118Z,38.75
2022-11-09T12:09:10.509Z,38.28
2022-11-09T12:12:12.267Z,43.15
2022-11-09T12:15:22.164Z,40.60
2022-11-09T12:18:18.190Z,37.45
2022-11-09T12:21:15.675Z,37.40
2022-11-09T12:24:16.662Z,41.88
2022-11-09T12:27:39.722Z,38.60
2022-11-09T12:30:37.096Z,36.70
2022-11-09T12:33:33.654Z,41.85
2022-11-09T12:36:25.528Z,37.47
2022-11-09T12:39:21.332Z,40.75
2022-11-09T12:42:12.564Z,37.20
2022-11-09T12:45:06.099Z,39.05
2022-11-09T12:47:54.801Z,36.33
2022-11-09T12:50:42.827Z,35.80
2022-11-09T12:53:33.612Z,31.75
2022-11-09T12:56:25.786Z,36.83
2022-11-09T12:59:36.879Z,33.13
2022-11-09T13:02:29.484Z,32.72
2022-11-09T13:05:30.786Z,34.67
2022-11-09T13:08:22.391Z,30.80
2022-11-09T13:11:12.351Z,30.15
2022-11-09T13:14:33.347Z,36.00
2022-11-09T13:18:02.882Z,32.35
2022-11-09T13:20:57.017Z,28.90
2022-11-09T13:24:03.462Z,32.80
2022-11-09T13:27:00.249Z,30.48
2022-11-09T13:29:56.110Z,33.45
2022-11-09T13:33:33.565Z,34.78
2022-11-09T13:36:22.209Z,33.15
2022-11-09T13:39:32.151Z,36.95
2022-11-09T13:42:31.124Z,31.05
2022-11-09T13:45:26.952Z,30.55
2022-11-09T13:48:36.051Z,33.83
2022-11-09T13:51:38.369Z,35.38
2022-11-09T13:54:32.694Z,29.42
2022-11-09T13:57:18.940Z,33.47
2022-11-09T14:00:07.398Z,30.13
2022-11-09T14:03:00.220Z,38.35
2022-11-09T14:05:49.848Z,30.40
2022-11-09T14:08:41.714Z,29.58
2022-11-09T14:11:51.850Z,25.75
2022-11-09T14:15:06.097Z,28.10
2022-11-09T14:18:07.918Z,30.55
2022-11-09T14:21:01.433Z,26.70
2022-11-09T14:23:49.411Z,27.58
2022-11-09T14:26:36.167Z,28.40
2022-11-09T14:29:24.335Z,29.58
2022-11-09T14:32:24.732Z,31.02
2022-11-09T14:35:23.988Z,36.58
2022-11-09T14:38:19.128Z,32.88
2022-11-09T14:41:20.423Z,32.22
2022-11-09T14:44:07.642Z,35.70
2022-11-09T14:46:54.673Z,35.90
2022-11-09T14:49:41.907Z,36.25
2022-11-09T14:52:30.961Z,28.70
2022-11-09T14:55:19.844Z,30.20
2022-11-09T14:58:13.420Z,35.90
2022-11-09T15:01:11.675Z,39.42
2022-11-09T15:04:11.096Z,40.15
2022-11-09T15:07:00.425Z,26.42
2022-11-09T15:09:49.392Z,33.70
2022-11-09T15:12:39.197Z,32.45
2022-11-09T15:15:32.483Z,33.75
2022-11-09T15:18:22.462Z,31.88
2022-11-09T15:21:18.679Z,41.40
2022-11-09T15:24:15.324Z,36.00
2022-11-09T15:27:01.857Z,38.17
2022-11-09T15:29:49.255Z,31.63
2022-11-09T15:32:40.496Z,36.67
2022-11-09T15:35:27.931Z,37.45
2022-11-09T15:38:30.602Z,38.53
2022-11-09T15:41:20.178Z,41.13
2022-11-09T15:44:07.828Z,36.97
2022-11-09T15:46:54.981Z,39.33
2022-11-09T15:49:42.577Z,44.38
2022-11-09T15:52:29.297Z,38.70
2022-11-09T15:55:18.272Z,41.75
2022-11-09T15:58:05.343Z,48.38
2022-11-09T16:00:52.370Z,40.53
2022-11-09T16:03:39.395Z,54.05
2022-11-09T16:06:27.562Z,42.80
2022-11-09T16:09:14.391Z,44.22
2022-11-09T16:12:01.010Z,52.60
2022-11-09T16:14:47.400Z,44.47
2022-11-09T16:17:34.280Z,43.08
2022-11-09T16:20:21.887Z,50.13
2022-11-09T16:23:09.604Z,52.95
2022-11-09T16:25:56.207Z,44.17
2022-11-09T16:28:43.544Z,53.58
2022-11-09T16:31:50.376Z,45.05
2022-11-09T16:34:37.035Z,50.00
2022-11-09T16:37:24.719Z,53.25
2022-11-09T16:40:14.824Z,58.42
2022-11-09T16:43:01.946Z,53.10
2022-11-09T16:45:51.253Z,51.22
2022-11-09T16:48:37.995Z,56.60
2022-11-09T16:51:24.562Z,61.83
2022-11-09T16:54:11.868Z,48.13
2022-11-09T16:57:00.786Z,61.78
2022-11-09T16:59:47.539Z,59.70
2022-11-09T17:02:34.996Z,53.35
2022-11-09T17:05:21.979Z,55.63
2022-11-09T17:08:09.081Z,55.13
2022-11-09T17:10:56.604Z,52.63
2022-11-09T17:13:44.624Z,57.25
2022-11-09T17:16:31.278Z,53.85
2022-11-09T17:19:17.688Z,56.75
2022-11-09T17:22:05.041Z,53.97
2022-11-09T17:24:51.709Z,50.92
2022-11-09T17:27:39.274Z,51.08
2022-11-09T17:30:26.862Z,59.13
2022-11-09T17:33:13.575Z,53.63
2022-11-09T17:36:00.930Z,56.00
2022-11-09T17:38:47.543Z,56.28
2022-11-09T17:41:37.458Z,63.67
2022-11-09T17:44:27.550Z,51.97
2022-11-09T17:47:15.628Z,55.85
2022-11-09T17:50:02.457Z,49.50
2022-11-09T17:52:50.440Z,61.53
2022-11-09T17:55:38.394Z,56.80
2022-11-09T17:58:25.958Z,53.25
2022-11-09T18:01:14.971Z,60.25
2022-11-09T18:04:06.348Z,52.95
2022-11-09T18:06:53.223Z,53.38
2022-11-09T18:09:42.084Z,53.85
2022-11-09T18:12:29.710Z,56.33
2022-11-09T18:15:16.115Z,59.03
2022-11-09T18:18:02.770Z,58.30
2022-11-09T18:20:51.270Z,59.05
2022-11-09T18:23:38.058Z,54.50
2022-11-09T18:26:24.608Z,58.38
2022-11-09T18:29:11.390Z,59.40
2022-11-09T18:31:58.257Z,64.50
2022-11-09T18:34:45.517Z,62.60
2022-11-09T18:37:35.901Z,69.35
2022-11-09T18:40:22.492Z,68.28
2022-11-09T18:43:08.860Z,61.63
2022-11-09T18:45:57.502Z,63.67
2022-11-09T18:48:44.906Z,74.35
2022-11-09T18:51:32.171Z,81.00
2022-11-09T18:54:20.069Z,70.82
2022-11-09T18:57:06.889Z,85.80
2022-11-09T18:59:54.041Z,95.32
2022-11-09T19:02:40.791Z,64.05
2022-11-09T19:05:27.317Z,59.08
2022-11-09T19:08:14.783Z,63.25
2022-11-09T19:11:07.262Z,60.50
2022-11-09T19:13:54.923Z,69.50
2022-11-09T19:16:42.971Z,70.82
2022-11-09T19:19:29.854Z,71.28
2022-11-09T19:22:19.320Z,70.70
2022-11-09T19:25:06.852Z,60.42
2022-11-09T19:27:55.094Z,69.80
2022-11-09T19:30:42.043Z,69.15
2022-11-09T19:33:28.513Z,70.80
2022-11-09T19:36:29.844Z,69.80
2022-11-09T19:39:17.647Z,72.97
2022-11-09T19:42:05.413Z,72.90
2022-11-09T19:44:56.425Z,74.30
2022-11-09T19:47:43.793Z,68.25
2022-11-09T19:50:30.421Z,68.13
2022-11-09T19:53:17.462Z,73.10
2022-11-09T19:56:08.597Z,72.72
2022-11-09T19:58:57.598Z,67.03
2022-11-09T20:01:45.847Z,64.63
2022-11-09T20:04:33.150Z,66.25
2022-11-09T20:07:20.219Z,63.65
2022-11-09T20:10:09.062Z,59.25
2022-11-09T20:12:55.562Z,64.75
2022-11-09T20:15:42.763Z,72.07
2022-11-09T20:18:31.089Z,72.40
2022-11-09T20:21:17.952Z,60.42
2022-11-09T20:24:04.501Z,63.78
2022-11-09T20:26:51.226Z,69.72
2022-11-09T20:29:37.892Z,77.03
2022-11-09T20:32:25.414Z,61.33
2022-11-09T20:35:13.845Z,61.83
2022-11-09T20:38:00.895Z,65.32
2022-11-09T20:40:54.558Z,67.45
2022-11-09T20:43:41.062Z,66.90
2022-11-09T20:46:32.720Z,65.80
2022-11-09T20:49:22.654Z,70.85
2022-11-09T20:52:10.977Z,60.10
2022-11-09T20:54:57.314Z,59.38
2022-11-09T20:57:43.656Z,61.53
2022-11-09T21:00:30.990Z,59.53
2022-11-09T21:03:17.799Z,70.47
2022-11-09T21:06:06.629Z,62.88
2022-11-09T21:08:57.016Z,63.40
2022-11-09T21:11:57.420Z,63.45
2022-11-09T21:14:44.836Z,71.22
2022-11-09T21:17:32.379Z,66.95
2022-11-09T21:20:18.947Z,61.53
2022-11-09T21:23:23.537Z,71.22
2022-11-09T21:26:29.311Z,63.88
2022-11-09T21:29:34.495Z,65.05
2022-11-09T21:32:25.478Z,55.22
2022-11-09T21:35:12.456Z,62.88
2022-11-09T21:37:59.470Z,61.08
2022-11-09T21:40:46.856Z,60.22
2022-11-09T21:43:35.063Z,58.08
2022-11-09T21:46:21.997Z,56.97
2022-11-09T21:49:09.913Z,58.28
2022-11-09T21:51:56.613Z,52.83
2022-11-09T21:54:43.388Z,56.63
2022-11-09T21:57:30.395Z,52.33
2022-11-09T22:00:19.864Z,48.85
2022-11-09T22:03:06.420Z,58.55
2022-11-09T22:05:52.796Z,52.58
2022-11-09T22:08:39.926Z,54.83
2022-11-09T22:11:42.079Z,44.63
2022-11-09T22:14:46.869Z,47.22
2022-11-09T22:17:34.941Z,44.05
2022-11-09T22:20:39.072Z,42.88
2022-11-09T22:23:25.528Z,52.80
2022-11-09T22:26:12.105Z,40.75
2022-11-09T22:28:58.693Z,48.08
2022-11-09T22:31:47.723Z,43.00
2022-11-09T22:34:35.603Z,37.22
2022-11-09T22:37:23.152Z,43.45
2022-11-09T22:40:11.258Z,46.35
2022-11-09T22:42:58.300Z,45.42
2022-11-09T22:45:44.906Z,37.65
2022-11-09T22:48:32.372Z,41.05
2022-11-09T22:51:20.489Z,41.75
2022-11-09T22:54:07.248Z,44.80
2022-11-09T22:57:13.486Z,41.60
2022-11-09T22:59:59.994Z,43.13
2022-11-09T23:02:47.107Z,40.47
2022-11-09T23:05:34.875Z,39.47
2022-11-09T23:08:23.157Z,30.60
2022-11-09T23:11:13.984Z,31.55
2022-11-09T23:14:00.952Z,31.73
2022-11-09T23:16:47.732Z,28.52
2022-11-09T23:19:32.936Z,29.30
2022-11-09T23:22:19.507Z,32.00
2022-11-09T23:25:27.175Z,24.98
2022-11-09T23:28:14.020Z,29.83
2022-11-09T23:31:01.322Z,24.27
2022-11-09T23:33:49.149Z,29.10
2022-11-09T23:36:35.467Z,26.38
2022-11-09T23:39:22.790Z,24.75
2022-11-09T23:42:10.838Z,22.77
2022-11-09T23:44:57.420Z,26.45
2022-11-09T23:47:43.848Z,22.95
2022-11-09T23:50:30.969Z,22.05
2022-11-09T23:53:18.045Z,22.35
2022-11-09T23:56:07.831Z,20.58
2022-11-09T23:58:56.104Z,22.98
